الصفحة الرئيسية
METAR-TAF:

METAR-TAF

مطار :

Talkeetna, ألاسكا, الولايات المتحدة

دائرة عرض: 62-19-14N, خط طول: 150-05-37W, ارتفاع: 109 متر

مراقبة الطقس الحالي

تاريخ ووقت الإصدار 37 دقيقة قبل الساعة 17:53UTC
ريح 5 عقدة من الشمال
درجة الحرارة -8°درجة مئوية
الرطوبة 48%
ضغط 1016 hPa
الرؤية: 16.1 كم
ملبد بالغيوم على ارتفاع 7000 قدم

METAR: PATK 041753Z 36005KT 10SM OVC070 M08/M17 A2999 RMK AO2 SLP166 T10831167 11083 21089 56005

زمن: 09:30 (18:30 UTC)

توقعات

تاريخ ووقت الإصدار 1ساعة و 0 دقيقة قبل الساعة 17:30UTC
التوقعات صالحة من04 الساعة 18 UTC إلى 05 الساعة 18 UTC
ريح 9 عقدة من الشمال/الشمال الشرقي
الرؤية: 10 كم
ملبد بالغيوم على ارتفاع 6000 قدم
من 05 الساعة 0000 UTC
ريح 5 عقدة من الشمال
الرؤية: 4.8 كم
ملبد بالغيوم على ارتفاع 2500 قدم
ثلوج خفيفة
من 05 الساعة 1200 UTC
ريح 5 عقدة من الشمال
الرؤية: 10 كم
غيوم متفرقة على ارتفاع 2000 قدم
ملبد بالغيوم على ارتفاع 3000 قدم
زخات في الجوار,

TAF: PATK 041730Z 0418/0518 02009KT P6SM OVC060 FM050000 36005KT 3SM -SN OVC025 FM051200 01005KT P6SM VCSH SCT020 OVC030

أرصاد الطقس والتوقعات من أكثر من 4000 مطار (تقارير الطقس للمطار METAR والتنبؤ بالطقس بالمطارTAF).

المحطات المتاحة هي النقط الصفراء والحمراء على الخريطة.

حرك المؤشر فوق النقطة لمعرفة اسم المحطة.

ثم انقر لمعرفة أرصاد وتوقعات الطقس.

لتغيير الخارطة: اضغط على الأزرار الخضراء مع رمز الصليب الأسود للتكبير. على الزر الأخضر مع شرطة للتصغير، أو على الأسهم الخضراء للخرائط المجاورة.


METAR-TAF: